createdAt,value
2023-05-13T00:01:38.537Z,17.72
2023-05-13T00:04:07.309Z,17.71
2023-05-13T00:06:36.215Z,17.72
2023-05-13T00:09:04.674Z,17.66
2023-05-13T00:11:35.983Z,17.61
2023-05-13T00:14:04.040Z,17.59
2023-05-13T00:16:35.427Z,17.54
2023-05-13T00:19:03.597Z,17.48
2023-05-13T00:21:32.184Z,17.42
2023-05-13T00:24:00.534Z,17.41
2023-05-13T00:26:28.507Z,17.43
2023-05-13T00:29:00.220Z,17.37
2023-05-13T00:31:28.701Z,17.32
2023-05-13T00:33:56.945Z,17.30
2023-05-13T00:36:27.462Z,17.27
2023-05-13T00:38:56.079Z,17.22
2023-05-13T00:41:24.344Z,17.17
2023-05-13T00:43:55.175Z,17.16
2023-05-13T00:46:24.920Z,17.15
2023-05-13T00:48:54.182Z,17.11
2023-05-13T00:51:22.158Z,17.12
2023-05-13T00:53:51.816Z,16.95
2023-05-13T00:56:23.227Z,16.69
2023-05-13T00:58:51.574Z,16.55
2023-05-13T01:01:33.625Z,16.50
2023-05-13T01:04:15.184Z,16.49
2023-05-13T01:06:57.987Z,16.48
2023-05-13T01:09:34.887Z,16.43
2023-05-13T01:12:08.986Z,16.36
2023-05-13T01:14:43.447Z,16.30
2023-05-13T01:17:16.301Z,16.34
2023-05-13T01:19:50.650Z,16.32
2023-05-13T01:22:20.056Z,16.38
2023-05-13T01:24:50.420Z,16.35
2023-05-13T01:27:18.687Z,16.32
2023-05-13T01:29:47.413Z,16.26
2023-05-13T01:32:17.430Z,16.21
2023-05-13T01:34:46.637Z,16.17
2023-05-13T01:37:14.939Z,16.13
2023-05-13T01:39:45.170Z,16.00
2023-05-13T01:42:13.740Z,15.95
2023-05-13T01:44:41.812Z,15.95
2023-05-13T01:47:10.029Z,15.94
2023-05-13T01:49:38.112Z,15.92
2023-05-13T01:52:08.304Z,15.88
2023-05-13T01:54:36.703Z,15.91
2023-05-13T01:57:06.839Z,16.01
2023-05-13T01:59:35.162Z,16.06
2023-05-13T02:02:04.171Z,16.10
2023-05-13T02:04:32.571Z,16.08
2023-05-13T02:07:01.157Z,16.07
2023-05-13T02:09:30.608Z,16.10
2023-05-13T02:11:59.350Z,16.16
2023-05-13T02:14:31.247Z,16.19
2023-05-13T02:16:59.608Z,16.22
2023-05-13T02:19:28.319Z,16.25
2023-05-13T02:21:56.699Z,16.24
2023-05-13T02:24:25.823Z,16.27
2023-05-13T02:26:54.505Z,16.25
2023-05-13T02:29:22.918Z,16.30
2023-05-13T02:31:52.280Z,16.32
2023-05-13T02:34:20.644Z,16.26
2023-05-13T02:36:49.765Z,16.28
2023-05-13T02:39:17.786Z,16.25
2023-05-13T02:41:45.823Z,16.19
2023-05-13T02:44:16.519Z,16.13
2023-05-13T02:46:45.344Z,16.06
2023-05-13T02:49:14.735Z,15.96
2023-05-13T02:51:43.929Z,15.91
2023-05-13T02:54:12.120Z,15.85
2023-05-13T02:56:40.223Z,15.86
2023-05-13T02:59:08.587Z,15.74
2023-05-13T03:01:36.718Z,15.68
2023-05-13T03:04:05.411Z,15.65
2023-05-13T03:06:35.055Z,15.61
2023-05-13T03:09:03.121Z,15.59
2023-05-13T03:11:31.228Z,15.56
2023-05-13T03:14:00.079Z,15.55
2023-05-13T03:16:28.734Z,15.52
2023-05-13T03:18:57.223Z,15.48
2023-05-13T03:21:25.684Z,15.45
2023-05-13T03:23:55.720Z,15.39
2023-05-13T03:26:23.780Z,15.34
2023-05-13T03:28:52.102Z,15.31
2023-05-13T03:31:20.475Z,15.24
2023-05-13T03:33:48.963Z,15.22
2023-05-13T03:36:17.329Z,15.23
2023-05-13T03:38:45.518Z,15.25
2023-05-13T03:41:17.459Z,15.33
2023-05-13T03:43:47.390Z,15.39
2023-05-13T03:46:16.479Z,15.41
2023-05-13T03:48:44.584Z,15.45
2023-05-13T03:51:12.803Z,15.51
2023-05-13T03:53:41.013Z,15.58
2023-05-13T03:56:09.273Z,15.65
2023-05-13T03:58:38.820Z,15.70
2023-05-13T04:01:07.893Z,15.74
2023-05-13T04:03:36.291Z,15.78
2023-05-13T04:06:04.599Z,15.83
2023-05-13T04:08:32.649Z,15.86
2023-05-13T04:11:00.944Z,15.95
2023-05-13T04:13:29.011Z,15.98
2023-05-13T04:15:58.342Z,16.03
2023-05-13T04:18:30.338Z,16.09
2023-05-13T04:20:58.399Z,16.13
2023-05-13T04:23:26.810Z,16.14
2023-05-13T04:25:54.806Z,16.17
2023-05-13T04:28:22.794Z,16.21
2023-05-13T04:30:51.244Z,16.23
2023-05-13T04:33:20.589Z,16.22
2023-05-13T04:35:48.819Z,16.27
2023-05-13T04:38:17.066Z,16.33
2023-05-13T04:40:45.321Z,16.40
2023-05-13T04:43:14.663Z,16.33
2023-05-13T04:45:43.550Z,16.35
2023-05-13T04:48:11.982Z,16.39
2023-05-13T04:50:46.255Z,16.40
2023-05-13T04:53:15.627Z,16.37
2023-05-13T04:55:43.627Z,16.35
2023-05-13T04:58:11.716Z,16.36
2023-05-13T05:00:40.163Z,16.35
2023-05-13T05:03:08.170Z,16.34
2023-05-13T05:05:36.213Z,16.32
2023-05-13T05:08:06.111Z,16.23
2023-05-13T05:10:34.598Z,16.12
2023-05-13T05:13:02.903Z,16.14
2023-05-13T05:15:31.802Z,16.14
2023-05-13T05:18:00.390Z,16.14
2023-05-13T05:20:29.297Z,16.22
2023-05-13T05:22:59.749Z,16.30
2023-05-13T05:25:29.862Z,16.39
2023-05-13T05:27:58.969Z,16.52
2023-05-13T05:30:27.646Z,16.72
2023-05-13T05:32:57.299Z,16.88
2023-05-13T05:35:25.968Z,17.12
2023-05-13T05:37:54.263Z,17.36
2023-05-13T05:40:23.179Z,17.65
2023-05-13T05:42:55.394Z,17.98
2023-05-13T05:45:23.580Z,18.25
2023-05-13T05:47:54.096Z,18.41
2023-05-13T05:50:22.789Z,18.57
2023-05-13T05:52:51.390Z,18.76
2023-05-13T05:55:19.858Z,18.97
2023-05-13T05:57:48.156Z,19.12
2023-05-13T06:00:18.982Z,19.26
2023-05-13T06:02:48.537Z,19.34
2023-05-13T06:05:17.901Z,19.43
2023-05-13T06:07:46.370Z,19.53
2023-05-13T06:10:14.628Z,19.66
2023-05-13T06:12:44.058Z,19.73
2023-05-13T06:15:12.485Z,19.74
2023-05-13T06:17:42.304Z,19.77
2023-05-13T06:20:11.701Z,19.88
2023-05-13T06:22:40.473Z,19.99
2023-05-13T06:25:09.151Z,20.12
2023-05-13T06:27:37.753Z,20.26
2023-05-13T06:30:07.399Z,20.39
2023-05-13T06:32:35.456Z,20.51
2023-05-13T06:35:07.222Z,20.58
2023-05-13T06:37:35.906Z,20.74
2023-05-13T06:40:04.913Z,20.88
2023-05-13T06:42:33.909Z,21.05
2023-05-13T06:45:02.135Z,21.19
2023-05-13T06:47:31.671Z,21.28
2023-05-13T06:49:59.703Z,21.49
2023-05-13T06:52:29.064Z,21.55
2023-05-13T06:54:57.252Z,21.72
2023-05-13T06:57:32.322Z,21.83
2023-05-13T07:00:08.473Z,22.01
2023-05-13T07:02:36.679Z,22.15
2023-05-13T07:05:05.324Z,22.30
2023-05-13T07:07:35.045Z,22.45
2023-05-13T07:10:03.242Z,22.61
2023-05-13T07:12:31.499Z,22.78
2023-05-13T07:14:59.834Z,22.98
2023-05-13T07:17:28.044Z,23.18
2023-05-13T07:19:56.872Z,23.24
2023-05-13T07:22:26.066Z,23.44
2023-05-13T07:24:56.005Z,23.49
2023-05-13T07:27:24.197Z,23.65
2023-05-13T07:29:52.516Z,23.71
2023-05-13T07:32:20.991Z,23.74
2023-05-13T07:34:49.229Z,23.76
2023-05-13T07:37:17.618Z,23.90
2023-05-13T07:39:45.776Z,23.98
2023-05-13T07:42:15.730Z,24.04
2023-05-13T07:44:44.071Z,24.15
2023-05-13T07:47:13.624Z,24.36
2023-05-13T07:49:41.985Z,24.44
2023-05-13T07:52:10.701Z,24.55
2023-05-13T07:54:41.940Z,24.64
2023-05-13T07:57:10.684Z,24.77
2023-05-13T07:59:39.990Z,24.96
2023-05-13T08:02:08.711Z,24.98
2023-05-13T08:04:37.085Z,25.17
2023-05-13T08:07:05.320Z,25.27
2023-05-13T08:09:33.332Z,25.31
2023-05-13T08:12:01.813Z,25.28
2023-05-13T08:14:29.990Z,25.31
2023-05-13T08:16:59.401Z,25.38
2023-05-13T08:19:27.730Z,25.47
2023-05-13T08:21:55.757Z,25.58
2023-05-13T08:24:26.252Z,25.76
2023-05-13T08:26:54.494Z,25.76
2023-05-13T08:29:22.690Z,25.84
2023-05-13T08:31:51.427Z,26.03
2023-05-13T08:34:21.196Z,26.14
2023-05-13T08:36:49.145Z,26.27
2023-05-13T08:39:17.213Z,26.41
2023-05-13T08:41:45.922Z,26.51
2023-05-13T08:44:14.334Z,26.61
2023-05-13T08:46:49.897Z,26.64
2023-05-13T08:49:20.356Z,26.76
2023-05-13T08:51:49.762Z,26.85
2023-05-13T08:54:21.083Z,26.92
2023-05-13T08:56:51.264Z,27.14
2023-05-13T08:59:19.551Z,27.33
2023-05-13T09:01:48.804Z,27.45
2023-05-13T09:04:18.072Z,27.60
2023-05-13T09:06:49.333Z,27.70
2023-05-13T09:09:17.689Z,27.67
2023-05-13T09:11:48.434Z,27.82
2023-05-13T09:14:20.000Z,27.84
2023-05-13T09:16:48.995Z,27.98
2023-05-13T09:19:17.726Z,28.11
2023-05-13T09:21:45.896Z,28.30
2023-05-13T09:24:18.821Z,28.39
2023-05-13T09:26:48.135Z,28.53
2023-05-13T09:29:21.358Z,28.29
2023-05-13T09:31:51.647Z,28.27
2023-05-13T09:34:31.027Z,28.35
2023-05-13T09:37:01.647Z,28.52
2023-05-13T09:39:33.808Z,28.75
2023-05-13T09:42:05.161Z,28.91
2023-05-13T09:44:34.163Z,29.07
2023-05-13T09:47:04.431Z,29.14
2023-05-13T09:49:33.141Z,29.05
2023-05-13T09:52:01.431Z,29.09
2023-05-13T09:54:37.136Z,29.23
2023-05-13T09:57:06.406Z,29.10
2023-05-13T09:59:35.360Z,29.46
2023-05-13T10:02:06.728Z,29.60
2023-05-13T10:04:35.554Z,29.71
2023-05-13T10:07:06.881Z,29.80
2023-05-13T10:09:38.167Z,30.00
2023-05-13T10:12:09.018Z,30.19
2023-05-13T10:14:38.413Z,30.51
2023-05-13T10:17:07.380Z,30.78
2023-05-13T10:19:36.202Z,30.99
2023-05-13T10:22:05.746Z,31.10
2023-05-13T10:24:38.024Z,31.07
2023-05-13T10:27:09.208Z,31.16
2023-05-13T10:29:38.892Z,31.27
2023-05-13T10:32:10.081Z,31.43
2023-05-13T10:34:40.705Z,31.58
2023-05-13T10:37:32.929Z,31.79
2023-05-13T10:40:24.846Z,31.98
2023-05-13T10:43:10.828Z,32.20
2023-05-13T10:45:39.219Z,32.42
2023-05-13T10:48:08.465Z,32.52
2023-05-13T10:50:38.891Z,32.57
2023-05-13T10:53:11.287Z,32.75
2023-05-13T10:55:45.990Z,32.86
2023-05-13T10:58:16.340Z,32.73
2023-05-13T11:00:46.630Z,32.31
2023-05-13T11:03:16.817Z,32.20
2023-05-13T11:05:48.105Z,32.36
2023-05-13T11:08:36.907Z,32.58
2023-05-13T11:11:18.725Z,32.71
2023-05-13T11:13:50.912Z,32.68
2023-05-13T11:16:19.665Z,32.88
2023-05-13T11:18:49.228Z,32.68
2023-05-13T11:21:17.608Z,32.77
2023-05-13T11:23:53.751Z,32.98
2023-05-13T11:26:23.061Z,33.25
2023-05-13T11:29:00.966Z,33.33
2023-05-13T11:31:29.989Z,33.43
2023-05-13T11:34:10.220Z,33.64
2023-05-13T11:36:40.476Z,33.48
2023-05-13T11:39:14.187Z,33.68
2023-05-13T11:42:12.930Z,33.74
2023-05-13T11:44:54.743Z,33.73
2023-05-13T11:47:28.375Z,33.45
2023-05-13T11:49:57.299Z,33.48
2023-05-13T11:52:25.482Z,33.36
2023-05-13T11:54:54.915Z,33.48
2023-05-13T11:57:24.774Z,33.36
2023-05-13T11:59:56.595Z,33.29
2023-05-13T12:02:26.663Z,33.36
2023-05-13T12:04:55.472Z,33.52
2023-05-13T12:07:24.679Z,33.37
2023-05-13T12:09:54.844Z,33.49
2023-05-13T12:12:23.646Z,33.09
2023-05-13T12:14:52.921Z,32.91
2023-05-13T12:17:22.752Z,33.05
2023-05-13T12:20:08.070Z,33.31
2023-05-13T12:22:37.093Z,33.57
2023-05-13T12:25:39.481Z,33.81
2023-05-13T12:28:08.471Z,33.87
2023-05-13T12:30:37.360Z,33.97
2023-05-13T12:33:07.307Z,34.10
2023-05-13T12:35:35.356Z,34.06
2023-05-13T12:38:05.066Z,34.02
2023-05-13T12:40:34.181Z,34.10
2023-05-13T12:43:03.186Z,34.17
2023-05-13T12:45:33.768Z,34.32
2023-05-13T12:48:02.999Z,34.34
2023-05-13T12:50:32.777Z,34.46
2023-05-13T12:53:01.059Z,34.33
2023-05-13T12:55:29.200Z,34.32
2023-05-13T12:58:00.129Z,34.45
2023-05-13T13:00:29.669Z,34.36
2023-05-13T13:02:58.730Z,34.10
2023-05-13T13:05:27.939Z,34.13
2023-05-13T13:07:57.263Z,34.35
2023-05-13T13:10:25.638Z,34.52
2023-05-13T13:12:53.709Z,34.70
2023-05-13T13:15:22.125Z,34.64
2023-05-13T13:17:50.636Z,34.63
2023-05-13T13:20:18.964Z,34.33
2023-05-13T13:22:47.063Z,34.10
2023-05-13T13:25:16.907Z,33.83
2023-05-13T13:27:45.214Z,33.79
2023-05-13T13:30:14.680Z,33.66
2023-05-13T13:32:43.212Z,33.08
2023-05-13T13:35:11.804Z,32.70
2023-05-13T13:37:41.022Z,32.06
2023-05-13T13:40:10.718Z,31.48
2023-05-13T13:42:44.762Z,30.84
2023-05-13T13:45:14.585Z,30.32
2023-05-13T13:47:43.197Z,29.84
2023-05-13T13:50:12.157Z,29.63
2023-05-13T13:52:40.332Z,29.70
2023-05-13T13:55:11.533Z,29.84
2023-05-13T13:57:41.078Z,30.06
2023-05-13T14:00:10.541Z,30.34
2023-05-13T14:02:39.299Z,30.56
2023-05-13T14:05:12.179Z,30.75
2023-05-13T14:07:40.604Z,31.26
2023-05-13T14:10:10.150Z,31.84
2023-05-13T14:12:39.158Z,32.33
2023-05-13T14:15:09.887Z,32.73
2023-05-13T14:17:38.118Z,32.87
2023-05-13T14:20:07.791Z,33.26
2023-05-13T14:22:36.583Z,33.73
2023-05-13T14:25:04.769Z,34.14
2023-05-13T14:27:34.091Z,34.47
2023-05-13T14:30:02.679Z,34.74
2023-05-13T14:32:32.108Z,34.84
2023-05-13T14:35:00.478Z,34.34
2023-05-13T14:37:31.717Z,33.71
2023-05-13T14:39:59.971Z,33.08
2023-05-13T14:42:28.355Z,32.46
2023-05-13T14:44:59.279Z,31.93
2023-05-13T14:47:27.609Z,31.92
2023-05-13T14:49:57.401Z,32.17
2023-05-13T14:52:28.672Z,32.45
2023-05-13T14:54:56.937Z,32.82
2023-05-13T14:57:25.017Z,32.79
2023-05-13T14:59:53.112Z,33.12
2023-05-13T15:02:21.514Z,33.90
2023-05-13T15:04:49.588Z,34.49
2023-05-13T15:07:19.084Z,34.42
2023-05-13T15:09:47.475Z,34.18
2023-05-13T15:12:15.482Z,33.53
2023-05-13T15:14:44.607Z,32.94
2023-05-13T15:17:14.101Z,32.90
2023-05-13T15:19:43.420Z,32.46
2023-05-13T15:22:11.619Z,31.97
2023-05-13T15:24:42.039Z,31.46
2023-05-13T15:27:10.829Z,31.17
2023-05-13T15:29:38.939Z,30.85
2023-05-13T15:32:08.464Z,30.54
2023-05-13T15:34:36.529Z,30.30
2023-05-13T15:37:04.584Z,30.13
2023-05-13T15:39:33.260Z,30.03
2023-05-13T15:42:02.583Z,29.99
2023-05-13T15:44:33.667Z,29.98
2023-05-13T15:47:02.706Z,30.21
2023-05-13T15:49:40.940Z,31.40
2023-05-13T15:52:09.529Z,32.66
2023-05-13T15:54:37.692Z,33.83
2023-05-13T15:57:07.306Z,34.59
2023-05-13T15:59:35.816Z,34.99
2023-05-13T16:02:03.993Z,35.17
2023-05-13T16:04:32.450Z,35.36
2023-05-13T16:07:00.548Z,34.95
2023-05-13T16:09:28.614Z,35.12
2023-05-13T16:11:57.022Z,35.68
2023-05-13T16:14:26.427Z,35.94
2023-05-13T16:16:54.415Z,36.09
2023-05-13T16:19:22.861Z,36.27
2023-05-13T16:21:51.105Z,36.38
2023-05-13T16:24:19.135Z,36.36
2023-05-13T16:26:48.280Z,35.60
2023-05-13T16:29:16.291Z,34.53
2023-05-13T16:31:45.666Z,33.47
2023-05-13T16:34:14.012Z,32.63
2023-05-13T16:36:42.160Z,31.93
2023-05-13T16:39:13.260Z,31.39
2023-05-13T16:41:41.212Z,31.01
2023-05-13T16:44:09.286Z,30.80
2023-05-13T16:46:37.551Z,30.69
2023-05-13T16:49:06.913Z,30.57
2023-05-13T16:51:35.016Z,30.31
2023-05-13T16:54:03.347Z,30.00
2023-05-13T16:56:31.754Z,29.86
2023-05-13T16:58:59.991Z,29.89
2023-05-13T17:01:28.340Z,29.56
2023-05-13T17:03:56.734Z,29.17
2023-05-13T17:06:26.250Z,28.87
2023-05-13T17:08:54.628Z,28.75
2023-05-13T17:11:22.803Z,29.14
2023-05-13T17:13:51.200Z,29.57
2023-05-13T17:16:19.734Z,30.51
2023-05-13T17:18:47.935Z,31.49
2023-05-13T17:21:16.047Z,32.28
2023-05-13T17:23:45.709Z,32.40
2023-05-13T17:26:13.753Z,31.70
2023-05-13T17:28:41.743Z,31.34
2023-05-13T17:31:10.062Z,31.49
2023-05-13T17:33:38.235Z,31.54
2023-05-13T17:36:07.902Z,31.45
2023-05-13T17:38:37.072Z,31.24
2023-05-13T17:41:08.343Z,31.41
2023-05-13T17:43:37.328Z,31.83
2023-05-13T17:46:06.031Z,32.09
2023-05-13T17:48:36.035Z,32.28
2023-05-13T17:51:05.261Z,32.22
2023-05-13T17:53:34.900Z,32.04
2023-05-13T17:56:03.288Z,31.72
2023-05-13T17:58:40.544Z,31.14
2023-05-13T18:01:14.272Z,30.56
2023-05-13T18:03:43.285Z,30.01
2023-05-13T18:06:11.886Z,29.60
2023-05-13T18:08:42.205Z,29.33
2023-05-13T18:11:10.883Z,29.10
2023-05-13T18:13:40.307Z,28.83
2023-05-13T18:16:10.236Z,28.64
2023-05-13T18:18:38.844Z,28.44
2023-05-13T18:21:06.896Z,28.16
2023-05-13T18:23:34.892Z,27.83
2023-05-13T18:26:03.283Z,27.59
2023-05-13T18:28:31.372Z,27.26
2023-05-13T18:31:00.776Z,26.87
2023-05-13T18:33:29.171Z,26.49
2023-05-13T18:35:57.272Z,26.10
2023-05-13T18:38:25.359Z,25.76
2023-05-13T18:40:53.854Z,25.42
2023-05-13T18:43:21.892Z,25.13
2023-05-13T18:45:50.178Z,24.86
2023-05-13T18:48:19.865Z,24.62
2023-05-13T18:50:47.818Z,24.39
2023-05-13T18:53:15.988Z,24.16
2023-05-13T18:55:46.484Z,23.96
2023-05-13T18:58:14.582Z,23.77
2023-05-13T19:00:42.849Z,23.61
2023-05-13T19:03:11.370Z,23.46
2023-05-13T19:05:41.321Z,23.30
2023-05-13T19:08:09.320Z,23.16
2023-05-13T19:10:40.234Z,23.01
2023-05-13T19:13:08.785Z,22.88
2023-05-13T19:15:36.922Z,22.76
2023-05-13T19:18:05.276Z,22.63
2023-05-13T19:20:33.384Z,22.53
2023-05-13T19:23:02.868Z,22.31
2023-05-13T19:25:31.640Z,22.06
2023-05-13T19:27:59.886Z,21.83
2023-05-13T19:30:27.981Z,21.69
2023-05-13T19:32:56.241Z,21.57
2023-05-13T19:35:24.408Z,21.42
2023-05-13T19:37:52.701Z,21.32
2023-05-13T19:40:22.754Z,21.22
2023-05-13T19:42:51.515Z,21.11
2023-05-13T19:45:20.909Z,20.95
2023-05-13T19:47:49.850Z,20.86
2023-05-13T19:50:18.187Z,20.78
2023-05-13T19:52:46.395Z,20.62
2023-05-13T19:55:14.988Z,20.50
2023-05-13T19:57:44.458Z,20.40
2023-05-13T20:00:13.551Z,20.36
2023-05-13T20:02:42.226Z,20.32
2023-05-13T20:05:10.750Z,20.28
2023-05-13T20:07:38.788Z,20.19
2023-05-13T20:10:08.716Z,20.10
2023-05-13T20:12:36.802Z,20.01
2023-05-13T20:15:07.464Z,19.95
2023-05-13T20:17:36.014Z,19.91
2023-05-13T20:20:05.126Z,19.85
2023-05-13T20:22:33.265Z,19.74
2023-05-13T20:25:01.709Z,19.68
2023-05-13T20:27:29.910Z,19.66
2023-05-13T20:30:00.466Z,19.63
2023-05-13T20:32:30.365Z,19.56
2023-05-13T20:34:58.618Z,19.47
2023-05-13T20:37:27.015Z,19.42
2023-05-13T20:39:55.353Z,19.34
2023-05-13T20:42:23.404Z,19.30
2023-05-13T20:44:52.345Z,19.29
2023-05-13T20:47:21.569Z,19.27
2023-05-13T20:49:51.172Z,19.23
2023-05-13T20:52:19.264Z,19.17
2023-05-13T20:54:47.717Z,19.15
2023-05-13T20:57:15.910Z,19.10
2023-05-13T20:59:43.970Z,19.05
2023-05-13T21:02:12.385Z,19.02
2023-05-13T21:04:40.640Z,18.87
2023-05-13T21:07:11.793Z,18.69
2023-05-13T21:09:40.365Z,18.61
2023-05-13T21:12:08.568Z,18.63
2023-05-13T21:14:36.619Z,18.65
2023-05-13T21:17:05.213Z,18.65
2023-05-13T21:19:33.316Z,18.68
2023-05-13T21:22:05.353Z,18.64
2023-05-13T21:24:35.297Z,18.63
2023-05-13T21:27:03.560Z,18.66
2023-05-13T21:29:31.750Z,18.69
2023-05-13T21:32:00.135Z,18.71
2023-05-13T21:34:28.330Z,18.75
2023-05-13T21:36:57.411Z,18.74
2023-05-13T21:39:25.754Z,18.57
2023-05-13T21:41:55.093Z,18.46
2023-05-13T21:44:24.796Z,18.34
2023-05-13T21:46:53.134Z,18.11
2023-05-13T21:49:21.595Z,18.00
2023-05-13T21:51:49.746Z,17.98
2023-05-13T21:54:19.278Z,17.98
2023-05-13T21:56:47.340Z,17.99
2023-05-13T21:59:16.759Z,18.01
2023-05-13T22:01:45.172Z,18.02
2023-05-13T22:04:13.612Z,18.00
2023-05-13T22:06:41.605Z,17.97
2023-05-13T22:09:09.667Z,17.95
2023-05-13T22:11:38.264Z,17.96
2023-05-13T22:14:08.312Z,17.94
2023-05-13T22:16:38.118Z,17.89
2023-05-13T22:19:06.631Z,17.84
2023-05-13T22:21:34.855Z,17.80
2023-05-13T22:24:05.003Z,17.76
2023-05-13T22:26:33.402Z,17.75
2023-05-13T22:29:01.707Z,17.71
2023-05-13T22:31:29.893Z,17.70
2023-05-13T22:33:59.655Z,17.72
2023-05-13T22:36:27.933Z,17.78
2023-05-13T22:38:56.015Z,17.81
2023-05-13T22:41:27.070Z,17.87
2023-05-13T22:43:55.058Z,17.91
2023-05-13T22:46:23.084Z,17.97
2023-05-13T22:48:51.608Z,18.02
2023-05-13T22:51:21.148Z,18.06
2023-05-13T22:53:49.308Z,18.06
2023-05-13T22:56:17.690Z,18.11
2023-05-13T22:58:46.107Z,18.14
2023-05-13T23:01:14.278Z,18.13
2023-05-13T23:03:42.704Z,18.12
2023-05-13T23:06:11.255Z,18.15
2023-05-13T23:08:40.697Z,18.12
2023-05-13T23:11:09.178Z,18.07
2023-05-13T23:13:37.580Z,18.07
2023-05-13T23:16:06.182Z,18.06
2023-05-13T23:18:34.920Z,18.04
2023-05-13T23:21:03.554Z,18.05
2023-05-13T23:23:31.957Z,18.04
2023-05-13T23:26:01.700Z,18.05
2023-05-13T23:28:30.325Z,18.04
2023-05-13T23:30:58.475Z,18.06
2023-05-13T23:33:26.726Z,18.07
2023-05-13T23:35:55.072Z,18.06
2023-05-13T23:38:23.917Z,18.07
2023-05-13T23:40:52.398Z,18.08
2023-05-13T23:43:21.817Z,18.10
2023-05-13T23:45:49.876Z,18.12
2023-05-13T23:48:18.255Z,18.12
2023-05-13T23:50:46.331Z,18.09
2023-05-13T23:53:16.258Z,18.08
2023-05-13T23:55:44.514Z,18.06
2023-05-13T23:58:12.489Z,18.08
